Keswick, Iowa
Current Conditions -  °F | °C
As of 6:15 PM on Tuesday 25 Nov 2014 (Local Time) from KOOA Reporting Station
Clear Clear  
Wind Chill: 19°   Ceiling: Unl
Heat Index: 27°   Visibility: 10mi
Dew Point: 19°   Wind: 8mph
Humidity: 69%   Direction: 130°SE
Pressure: 30.1"   Gusts: NA
Location:  41.45°N, 92.24°W
Report Text: KOOA 260015Z AUTO 13007KT 10SM CLR M03/M07 A3010 RMK AO2 T10261075
Loading
Personal Weather Stations






























Interactive Weather Map New forecast layout! Learn more

10-Day Weather Forecast

Advertisements
Track Severe Weather on mobile